sensor_id;sensor_type;location;lat;lon;timestamp;pressure;altitude;pressure_sealevel;temperature
75431;BMP280;64127;51.488;5.462;2023-07-22T00:01:43;101175.25;;;20.13
75431;BMP280;64127;51.488;5.462;2023-07-22T00:04:16;101176.94;;;20.05
75431;BMP280;64127;51.488;5.462;2023-07-22T00:06:48;101168.91;;;19.96
75431;BMP280;64127;51.488;5.462;2023-07-22T00:09:20;101149.25;;;19.82
75431;BMP280;64127;51.488;5.462;2023-07-22T00:11:52;101158.16;;;19.87
75431;BMP280;64127;51.488;5.462;2023-07-22T00:14:25;101160.81;;;19.84
75431;BMP280;64127;51.488;5.462;2023-07-22T00:16:57;101175.06;;;19.89
75431;BMP280;64127;51.488;5.462;2023-07-22T00:19:29;101167.91;;;19.82
75431;BMP280;64127;51.488;5.462;2023-07-22T00:22:01;101173.19;;;19.79
75431;BMP280;64127;51.488;5.462;2023-07-22T00:24:33;101172.28;;;19.75
75431;BMP280;64127;51.488;5.462;2023-07-22T00:27:08;101167.81;;;19.72
75431;BMP280;64127;51.488;5.462;2023-07-22T00:29:41;101164.22;;;19.70
75431;BMP280;64127;51.488;5.462;2023-07-22T00:32:13;101149.91;;;19.56
75431;BMP280;64127;51.488;5.462;2023-07-22T00:34:45;101165.91;;;19.62
75431;BMP280;64127;51.488;5.462;2023-07-22T00:37:18;101157.03;;;19.59
75431;BMP280;64127;51.488;5.462;2023-07-22T00:39:50;101171.31;;;19.65
75431;BMP280;64127;51.488;5.462;2023-07-22T00:42:22;101097.22;;;19.20
75431;BMP280;64127;51.488;5.462;2023-07-22T00:44:54;101171.25;;;19.62
75431;BMP280;64127;51.488;5.462;2023-07-22T00:47:26;101146.34;;;19.51
75431;BMP280;64127;51.488;5.462;2023-07-22T00:50:02;101157.97;;;19.64
75431;BMP280;64127;51.488;5.462;2023-07-22T00:52:35;101163.34;;;19.68
75431;BMP280;64127;51.488;5.462;2023-07-22T00:55:08;101134.78;;;19.52
75431;BMP280;64127;51.488;5.462;2023-07-22T00:57:41;101156.19;;;19.61
75431;BMP280;64127;51.488;5.462;2023-07-22T01:00:13;101130.34;;;19.48
75431;BMP280;64127;51.488;5.462;2023-07-22T01:02:47;101169.50;;;19.64
75431;BMP280;64127;51.488;5.462;2023-07-22T01:05:22;101149.00;;;19.53
75431;BMP280;64127;51.488;5.462;2023-07-22T01:07:55;101140.94;;;19.45
75431;BMP280;64127;51.488;5.462;2023-07-22T01:10:27;101108.78;;;19.24
75431;BMP280;64127;51.488;5.462;2023-07-22T01:13:00;101140.84;;;19.39
75431;BMP280;64127;51.488;5.462;2023-07-22T01:15:33;101089.09;;;19.05
75431;BMP280;64127;51.488;5.462;2023-07-22T01:18:06;101154.13;;;19.38
75431;BMP280;64127;51.488;5.462;2023-07-22T01:20:39;101153.25;;;19.37
75431;BMP280;64127;51.488;5.462;2023-07-22T01:23:12;101151.41;;;19.33
75431;BMP280;64127;51.488;5.462;2023-07-22T01:25:47;101149.72;;;19.38
75431;BMP280;64127;51.488;5.462;2023-07-22T01:28:21;101143.47;;;19.35
75431;BMP280;64127;51.488;5.462;2023-07-22T01:30:53;101147.91;;;19.34
75431;BMP280;64127;51.488;5.462;2023-07-22T01:33:26;101114.03;;;19.16
75431;BMP280;64127;51.488;5.462;2023-07-22T01:36:00;101147.88;;;19.31
75431;BMP280;64127;51.488;5.462;2023-07-22T01:38:34;101145.13;;;19.25
75431;BMP280;64127;51.488;5.462;2023-07-22T01:41:07;101122.78;;;19.08
75431;BMP280;64127;51.488;5.462;2023-07-22T01:43:39;101145.09;;;19.20
75431;BMP280;64127;51.488;5.462;2023-07-22T01:46:14;101135.28;;;19.18
75431;BMP280;64127;51.488;5.462;2023-07-22T01:48:46;101123.72;;;19.14
75431;BMP280;64127;51.488;5.462;2023-07-22T01:51:18;101107.69;;;19.05
75431;BMP280;64127;51.488;5.462;2023-07-22T01:53:50;101110.25;;;18.98
75431;BMP280;64127;51.488;5.462;2023-07-22T01:56:23;101126.31;;;19.04
75431;BMP280;64127;51.488;5.462;2023-07-22T01:58:56;101140.41;;;19.01
75431;BMP280;64127;51.488;5.462;2023-07-22T02:01:28;101130.72;;;19.05
75431;BMP280;64127;51.488;5.462;2023-07-22T02:04:00;101135.19;;;19.09
75431;BMP280;64127;51.488;5.462;2023-07-22T02:06:33;101126.31;;;19.07
75431;BMP280;64127;51.488;5.462;2023-07-22T02:09:05;101096.91;;;18.90
75431;BMP280;64127;51.488;5.462;2023-07-22T02:11:40;101102.31;;;19.01
75431;BMP280;64127;51.488;5.462;2023-07-22T02:14:12;101126.31;;;19.07
75431;BMP280;64127;51.488;5.462;2023-07-22T02:16:47;101084.47;;;18.88
75431;BMP280;64127;51.488;5.462;2023-07-22T02:19:20;101126.38;;;19.13
75431;BMP280;64127;51.488;5.462;2023-07-22T02:21:52;101122.88;;;19.14
75431;BMP280;64127;51.488;5.462;2023-07-22T02:24:24;101103.25;;;19.03
75431;BMP280;64127;51.488;5.462;2023-07-22T02:26:56;101085.41;;;18.93
75431;BMP280;64127;51.488;5.462;2023-07-22T02:29:28;101103.19;;;18.97
75431;BMP280;64127;51.488;5.462;2023-07-22T02:32:03;101121.88;;;19.06
75431;BMP280;64127;51.488;5.462;2023-07-22T02:34:37;101112.09;;;19.02
75431;BMP280;64127;51.488;5.462;2023-07-22T02:37:09;101124.50;;;19.03
75431;BMP280;64127;51.488;5.462;2023-07-22T02:39:41;101115.50;;;18.92
75431;BMP280;64127;51.488;5.462;2023-07-22T02:42:13;101119.13;;;18.97
75431;BMP280;64127;51.488;5.462;2023-07-22T02:44:45;101101.19;;;18.81
75431;BMP280;64127;51.488;5.462;2023-07-22T02:47:18;101069.16;;;18.65
75431;BMP280;64127;51.488;5.462;2023-07-22T02:49:50;101118.22;;;18.98
75431;BMP280;64127;51.488;5.462;2023-07-22T02:52:22;101088.84;;;18.83
75431;BMP280;64127;51.488;5.462;2023-07-22T02:55:13;101118.25;;;18.99
75431;BMP280;64127;51.488;5.462;2023-07-22T02:57:47;101124.50;;;19.03
75431;BMP280;64127;51.488;5.462;2023-07-22T03:00:20;101117.44;;;19.05
75431;BMP280;64127;51.488;5.462;2023-07-22T03:02:59;101120.97;;;19.04
75431;BMP280;64127;51.488;5.462;2023-07-22T03:05:37;101042.38;;;18.49
75431;BMP280;64127;51.488;5.462;2023-07-22T03:08:09;101128.84;;;18.93
75431;BMP280;64127;51.488;5.462;2023-07-22T03:10:48;101106.47;;;18.76
75431;BMP280;64127;51.488;5.462;2023-07-22T03:13:20;101125.19;;;18.85
75431;BMP280;64127;51.488;5.462;2023-07-22T03:15:52;101130.50;;;18.85
75431;BMP280;64127;51.488;5.462;2023-07-22T03:18:24;101096.63;;;18.67
75431;BMP280;64127;51.488;5.462;2023-07-22T03:20:57;101094.72;;;18.56
75431;BMP280;64127;51.488;5.462;2023-07-22T03:23:29;101112.56;;;18.66
75431;BMP280;64127;51.488;5.462;2023-07-22T03:26:01;101140.97;;;18.74
75431;BMP280;64127;51.488;5.462;2023-07-22T03:28:33;101140.13;;;18.76
75431;BMP280;64127;51.488;5.462;2023-07-22T03:31:06;101057.13;;;18.27
75431;BMP280;64127;51.488;5.462;2023-07-22T03:33:39;101139.97;;;18.66
75431;BMP280;64127;51.488;5.462;2023-07-22T03:36:11;101130.22;;;18.64
75431;BMP280;64127;51.488;5.462;2023-07-22T03:38:47;101115.91;;;18.53
75431;BMP280;64127;51.488;5.462;2023-07-22T03:41:19;101132.75;;;18.56
75431;BMP280;64127;51.488;5.462;2023-07-22T03:43:54;101145.25;;;18.63
75431;BMP280;64127;51.488;5.462;2023-07-22T03:46:26;101150.88;;;18.88
75431;BMP280;64127;51.488;5.462;2023-07-22T03:48:59;101148.78;;;18.61
75431;BMP280;64127;51.488;5.462;2023-07-22T03:51:31;101131.00;;;18.55
75431;BMP280;64127;51.488;5.462;2023-07-22T03:54:03;101147.81;;;18.54
75431;BMP280;64127;51.488;5.462;2023-07-22T03:56:40;101146.00;;;18.52
75431;BMP280;64127;51.488;5.462;2023-07-22T03:59:12;101146.91;;;18.52
75431;BMP280;64127;51.488;5.462;2023-07-22T04:01:47;101143.38;;;18.55
75431;BMP280;64127;51.488;5.462;2023-07-22T04:04:19;101115.72;;;18.41
75431;BMP280;64127;51.488;5.462;2023-07-22T04:06:51;101118.34;;;18.38
75431;BMP280;64127;51.488;5.462;2023-07-22T04:09:24;101102.28;;;18.30
75431;BMP280;64127;51.488;5.462;2023-07-22T04:11:56;101123.59;;;18.36
75431;BMP280;64127;51.488;5.462;2023-07-22T04:14:29;101143.16;;;18.41
75431;BMP280;64127;51.488;5.462;2023-07-22T04:17:01;101118.22;;;18.30
75431;BMP280;64127;51.488;5.462;2023-07-22T04:19:33;101133.38;;;18.37
75431;BMP280;64127;51.488;5.462;2023-07-22T04:22:05;101139.72;;;18.48
75431;BMP280;64127;51.488;5.462;2023-07-22T04:24:38;101143.13;;;18.38
75431;BMP280;64127;51.488;5.462;2023-07-22T04:27:10;101145.78;;;18.38
75431;BMP280;64127;51.488;5.462;2023-07-22T04:29:43;101137.66;;;18.29
75431;BMP280;64127;51.488;5.462;2023-07-22T04:32:18;101143.91;;;18.33
75431;BMP280;64127;51.488;5.462;2023-07-22T04:34:50;101156.41;;;18.38
75431;BMP280;64127;51.488;5.462;2023-07-22T04:37:22;101159.09;;;18.41
75431;BMP280;64127;51.488;5.462;2023-07-22T04:39:54;101143.09;;;18.35
75431;BMP280;64127;51.488;5.462;2023-07-22T04:42:26;101146.59;;;18.36
75431;BMP280;64127;51.488;5.462;2023-07-22T04:44:59;101160.00;;;18.42
75431;BMP280;64127;51.488;5.462;2023-07-22T04:47:31;101149.28;;;18.37
75431;BMP280;64127;51.488;5.462;2023-07-22T04:50:03;101152.97;;;18.45
75431;BMP280;64127;51.488;5.462;2023-07-22T04:52:38;101152.06;;;18.46
75431;BMP280;64127;51.488;5.462;2023-07-22T04:55:11;101151.22;;;18.47
75431;BMP280;64127;51.488;5.462;2023-07-22T04:57:44;101161.94;;;18.52
75431;BMP280;64127;51.488;5.462;2023-07-22T05:00:22;101158.28;;;18.47
75431;BMP280;64127;51.488;5.462;2023-07-22T05:02:54;101152.00;;;18.40
75431;BMP280;64127;51.488;5.462;2023-07-22T05:05:28;101172.38;;;18.43
75431;BMP280;64127;51.488;5.462;2023-07-22T05:08:00;101163.44;;;18.36
75431;BMP280;64127;51.488;5.462;2023-07-22T05:10:33;101166.19;;;18.42
75431;BMP280;64127;51.488;5.462;2023-07-22T05:13:06;101164.41;;;18.43
75431;BMP280;64127;51.488;5.462;2023-07-22T05:15:38;101175.19;;;18.50
75431;BMP280;64127;51.488;5.462;2023-07-22T05:18:10;101123.41;;;18.21
75431;BMP280;64127;51.488;5.462;2023-07-22T05:20:45;101155.47;;;18.36
75431;BMP280;64127;51.488;5.462;2023-07-22T05:23:17;101099.28;;;18.06
75431;BMP280;64127;51.488;5.462;2023-07-22T05:25:53;101161.75;;;18.43
75431;BMP280;64127;51.488;5.462;2023-07-22T05:28:25;101151.94;;;18.37
75431;BMP280;64127;51.488;5.462;2023-07-22T05:30:57;101145.63;;;18.29
75431;BMP280;64127;51.488;5.462;2023-07-22T05:33:29;101130.59;;;18.30
75431;BMP280;64127;51.488;5.462;2023-07-22T05:36:02;101099.44;;;18.15
75431;BMP280;64127;51.488;5.462;2023-07-22T05:38:34;101143.19;;;18.44
75431;BMP280;64127;51.488;5.462;2023-07-22T05:41:06;101129.03;;;18.42
75431;BMP280;64127;51.488;5.462;2023-07-22T05:43:38;101158.53;;;18.62
75431;BMP280;64127;51.488;5.462;2023-07-22T05:46:10;101169.19;;;18.66
75431;BMP280;64127;51.488;5.462;2023-07-22T05:48:42;101129.88;;;18.43
75431;BMP280;64127;51.488;5.462;2023-07-22T05:51:14;101156.78;;;18.64
75431;BMP280;64127;51.488;5.462;2023-07-22T05:53:47;101146.94;;;18.55
75431;BMP280;64127;51.488;5.462;2023-07-22T05:56:19;101159.50;;;18.68
75431;BMP280;64127;51.488;5.462;2023-07-22T05:58:51;101163.03;;;18.67
75431;BMP280;64127;51.488;5.462;2023-07-22T06:01:26;101157.72;;;18.67
75431;BMP280;64127;51.488;5.462;2023-07-22T06:03:58;101153.34;;;18.69
75431;BMP280;64127;51.488;5.462;2023-07-22T06:06:31;101145.25;;;18.63
75431;BMP280;64127;51.488;5.462;2023-07-22T06:09:03;101132.91;;;18.65
75431;BMP280;64127;51.488;5.462;2023-07-22T06:11:36;101120.50;;;18.63
75431;BMP280;64127;51.488;5.462;2023-07-22T06:14:08;101158.09;;;18.98
75431;BMP280;64127;51.488;5.462;2023-07-22T06:16:41;101100.22;;;18.69
75431;BMP280;64127;51.488;5.462;2023-07-22T06:19:20;101151.16;;;19.09
75431;BMP280;64127;51.488;5.462;2023-07-22T06:21:53;101128.03;;;19.02
75431;BMP280;64127;51.488;5.462;2023-07-22T06:24:26;101144.22;;;19.23
75431;BMP280;64127;51.488;5.462;2023-07-22T06:26:58;101126.41;;;19.16
75431;BMP280;64127;51.488;5.462;2023-07-22T06:29:30;101146.09;;;19.33
75431;BMP280;64127;51.488;5.462;2023-07-22T06:32:02;101120.31;;;19.24
75431;BMP280;64127;51.488;5.462;2023-07-22T06:34:34;101155.13;;;19.44
75431;BMP280;64127;51.488;5.462;2023-07-22T06:37:06;101141.78;;;19.43
75431;BMP280;64127;51.488;5.462;2023-07-22T06:39:41;101117.75;;;19.35
75431;BMP280;64127;51.488;5.462;2023-07-22T06:42:14;101133.81;;;19.41
75431;BMP280;64127;51.488;5.462;2023-07-22T06:44:46;101144.53;;;19.50
75431;BMP280;64127;51.488;5.462;2023-07-22T06:47:18;101108.91;;;19.39
75431;BMP280;64127;51.488;5.462;2023-07-22T06:49:50;101115.34;;;19.55
75431;BMP280;64127;51.488;5.462;2023-07-22T06:52:22;101137.69;;;19.75
75431;BMP280;64127;51.488;5.462;2023-07-22T06:54:55;101142.16;;;19.79
75431;BMP280;64127;51.488;5.462;2023-07-22T06:57:29;101135.00;;;19.75
75431;BMP280;64127;51.488;5.462;2023-07-22T07:00:01;101083.31;;;19.49
75431;BMP280;64127;51.488;5.462;2023-07-22T07:02:33;101043.34;;;19.38
75431;BMP280;64127;51.488;5.462;2023-07-22T07:05:06;101099.56;;;19.81
75431;BMP280;64127;51.488;5.462;2023-07-22T07:07:38;101123.69;;;20.05
75431;BMP280;64127;51.488;5.462;2023-07-22T07:10:11;101129.06;;;20.08
75431;BMP280;64127;51.488;5.462;2023-07-22T07:12:45;101039.09;;;19.58
75431;BMP280;64127;51.488;5.462;2023-07-22T07:15:17;101036.47;;;19.64
75431;BMP280;64127;51.488;5.462;2023-07-22T07:17:49;101028.50;;;19.64
75431;BMP280;64127;51.488;5.462;2023-07-22T07:20:21;101115.06;;;20.33
75431;BMP280;64127;51.488;5.462;2023-07-22T07:22:53;101118.63;;;20.41
75431;BMP280;64127;51.488;5.462;2023-07-22T07:25:26;101116.91;;;20.49
75431;BMP280;64127;51.488;5.462;2023-07-22T07:27:58;101115.13;;;20.48
75431;BMP280;64127;51.488;5.462;2023-07-22T07:30:31;101118.69;;;20.47
75431;BMP280;64127;51.488;5.462;2023-07-22T07:33:04;101121.28;;;20.41
75431;BMP280;64127;51.488;5.462;2023-07-22T07:35:38;101120.38;;;20.33
75431;BMP280;64127;51.488;5.462;2023-07-22T07:38:10;101115.84;;;20.20
75431;BMP280;64127;51.488;5.462;2023-07-22T07:40:45;100986.66;;;19.45
75431;BMP280;64127;51.488;5.462;2023-07-22T07:43:17;101120.28;;;20.25
75431;BMP280;64127;51.488;5.462;2023-07-22T07:45:50;101008.06;;;19.63
75431;BMP280;64127;51.488;5.462;2023-07-22T07:48:22;101008.19;;;19.76
75431;BMP280;64127;51.488;5.462;2023-07-22T07:50:55;101110.69;;;20.47
75431;BMP280;64127;51.488;5.462;2023-07-22T07:53:27;101124.06;;;20.62
75431;BMP280;64127;51.488;5.462;2023-07-22T07:55:59;101120.53;;;20.60
75431;BMP280;64127;51.488;5.462;2023-07-22T07:58:31;101125.88;;;20.66
75431;BMP280;64127;51.488;5.462;2023-07-22T08:01:04;101107.22;;;20.65
75431;BMP280;64127;51.488;5.462;2023-07-22T08:03:40;101108.16;;;20.78
75431;BMP280;64127;51.488;5.462;2023-07-22T08:06:19;101122.41;;;20.81
75431;BMP280;64127;51.488;5.462;2023-07-22T08:08:51;101121.50;;;20.84
75431;BMP280;64127;51.488;5.462;2023-07-22T08:11:23;101134.88;;;20.93
75431;BMP280;64127;51.488;5.462;2023-07-22T08:13:58;101117.06;;;20.81
75431;BMP280;64127;51.488;5.462;2023-07-22T08:16:34;101136.63;;;20.88
75431;BMP280;64127;51.488;5.462;2023-07-22T08:19:06;101124.19;;;20.82
75431;BMP280;64127;51.488;5.462;2023-07-22T08:21:38;101068.94;;;20.49
75431;BMP280;64127;51.488;5.462;2023-07-22T08:24:10;101129.50;;;20.87
75431;BMP280;64127;51.488;5.462;2023-07-22T08:26:48;101117.97;;;20.85
75431;BMP280;64127;51.488;5.462;2023-07-22T08:29:20;101090.38;;;20.77
75431;BMP280;64127;51.488;5.462;2023-07-22T08:31:52;101122.47;;;21.02
75431;BMP280;64127;51.488;5.462;2023-07-22T08:34:25;101106.44;;;20.89
75431;BMP280;64127;51.488;5.462;2023-07-22T08:36:57;101106.47;;;21.08
75431;BMP280;64127;51.488;5.462;2023-07-22T08:39:29;101095.00;;;21.32
75431;BMP280;64127;51.488;5.462;2023-07-22T08:42:04;101103.03;;;21.50
75431;BMP280;64127;51.488;5.462;2023-07-22T08:44:43;101108.38;;;21.65
75431;BMP280;64127;51.488;5.462;2023-07-22T08:47:21;101102.16;;;21.77
75431;BMP280;64127;51.488;5.462;2023-07-22T08:50:01;101119.09;;;22.02
75431;BMP280;64127;51.488;5.462;2023-07-22T08:52:34;101133.28;;;22.25
75431;BMP280;64127;51.488;5.462;2023-07-22T08:55:07;101121.69;;;22.28
75431;BMP280;64127;51.488;5.462;2023-07-22T08:57:43;101116.34;;;22.35
75431;BMP280;64127;51.488;5.462;2023-07-22T09:00:16;101124.31;;;22.53
75431;BMP280;64127;51.488;5.462;2023-07-22T09:02:49;101118.97;;;22.47
75431;BMP280;64127;51.488;5.462;2023-07-22T09:05:22;101114.47;;;22.54
75431;BMP280;64127;51.488;5.462;2023-07-22T09:07:56;101130.50;;;22.72
75431;BMP280;64127;51.488;5.462;2023-07-22T09:10:29;101108.28;;;22.53
75431;BMP280;64127;51.488;5.462;2023-07-22T09:15:43;101102.13;;;22.18
75431;BMP280;64127;51.488;5.462;2023-07-22T09:18:17;101132.38;;;22.43
75431;BMP280;64127;51.488;5.462;2023-07-22T09:20:49;101112.78;;;22.36
75431;BMP280;64127;51.488;5.462;2023-07-22T09:23:36;101121.66;;;22.53
75431;BMP280;64127;51.488;5.462;2023-07-22T09:26:15;101117.16;;;22.58
75431;BMP280;64127;51.488;5.462;2023-07-22T09:28:52;101025.53;;;22.18
75431;BMP280;64127;51.488;5.462;2023-07-22T09:31:27;101067.25;;;22.54
75431;BMP280;64127;51.488;5.462;2023-07-22T09:34:11;101095.69;;;22.83
75431;BMP280;64127;51.488;5.462;2023-07-22T09:36:58;101107.19;;;23.04
75431;BMP280;64127;51.488;5.462;2023-07-22T09:39:32;101033.41;;;22.56
75431;BMP280;64127;51.488;5.462;2023-07-22T09:42:07;101045.84;;;22.63
75431;BMP280;64127;51.488;5.462;2023-07-22T09:44:48;101066.34;;;22.69
75431;BMP280;64127;51.488;5.462;2023-07-22T09:47:20;100991.66;;;22.25
75431;BMP280;64127;51.488;5.462;2023-07-22T09:49:53;101111.75;;;22.80
75431;BMP280;64127;51.488;5.462;2023-07-22T09:52:28;101021.06;;;22.23
75431;BMP280;64127;51.488;5.462;2023-07-22T09:55:00;100995.31;;;22.00
75431;BMP280;64127;51.488;5.462;2023-07-22T09:57:36;101104.66;;;22.57
75431;BMP280;64127;51.488;5.462;2023-07-22T10:00:14;100990.88;;;21.82
75431;BMP280;64127;51.488;5.462;2023-07-22T10:02:51;101008.66;;;21.86
75431;BMP280;64127;51.488;5.462;2023-07-22T10:05:33;101052.25;;;22.17
75431;BMP280;64127;51.488;5.462;2023-07-22T10:08:07;101017.56;;;21.99
75431;BMP280;64127;51.488;5.462;2023-07-22T10:10:43;101072.75;;;22.22
75431;BMP280;64127;51.488;5.462;2023-07-22T10:13:20;100982.88;;;21.81
75431;BMP280;64127;51.488;5.462;2023-07-22T10:15:55;101033.53;;;22.20
75431;BMP280;64127;51.488;5.462;2023-07-22T10:18:32;101074.41;;;22.43
75431;BMP280;64127;51.488;5.462;2023-07-22T10:21:06;101103.75;;;22.64
75431;BMP280;64127;51.488;5.462;2023-07-22T10:23:41;101034.41;;;22.33
75431;BMP280;64127;51.488;5.462;2023-07-22T10:26:23;100992.59;;;22.18
75431;BMP280;64127;51.488;5.462;2023-07-22T10:29:16;101052.13;;;22.56
75431;BMP280;64127;51.488;5.462;2023-07-22T10:31:48;101005.00;;;22.31
75431;BMP280;64127;51.488;5.462;2023-07-22T10:34:25;101056.50;;;22.76
75431;BMP280;64127;51.488;5.462;2023-07-22T10:37:11;101028.88;;;22.77
75431;BMP280;64127;51.488;5.462;2023-07-22T10:39:43;100976.22;;;22.82
75431;BMP280;64127;51.488;5.462;2023-07-22T10:42:26;100999.31;;;22.96
75431;BMP280;64127;51.488;5.462;2023-07-22T10:45:01;101076.63;;;23.39
75431;BMP280;64127;51.488;5.462;2023-07-22T10:47:34;101012.63;;;23.05
75431;BMP280;64127;51.488;5.462;2023-07-22T10:50:09;101018.81;;;23.09
75431;BMP280;64127;51.488;5.462;2023-07-22T10:52:50;100951.34;;;22.73
75431;BMP280;64127;51.488;5.462;2023-07-22T10:55:22;100980.53;;;23.04
75431;BMP280;64127;51.488;5.462;2023-07-22T10:58:06;101073.00;;;23.47
75431;BMP280;64127;51.488;5.462;2023-07-22T11:00:39;101080.13;;;23.50
75431;BMP280;64127;51.488;5.462;2023-07-22T11:03:14;100963.72;;;22.87
75431;BMP280;64127;51.488;5.462;2023-07-22T11:05:53;101058.78;;;23.38
75431;BMP280;64127;51.488;5.462;2023-07-22T11:08:40;101069.50;;;23.33
75431;BMP280;64127;51.488;5.462;2023-07-22T11:11:15;101037.50;;;23.16
75431;BMP280;64127;51.488;5.462;2023-07-22T11:13:51;101001.13;;;22.93
75431;BMP280;64127;51.488;5.462;2023-07-22T11:16:23;100989.47;;;22.98
75431;BMP280;64127;51.488;5.462;2023-07-22T11:18:58;101076.53;;;23.55
75431;BMP280;64127;51.488;5.462;2023-07-22T11:21:30;100995.56;;;23.21
75431;BMP280;64127;51.488;5.462;2023-07-22T11:24:12;100937.78;;;22.98
75431;BMP280;64127;51.488;5.462;2023-07-22T11:26:46;100971.50;;;23.15
75431;BMP280;64127;51.488;5.462;2023-07-22T11:29:21;100942.09;;;23.14
75431;BMP280;64127;51.488;5.462;2023-07-22T11:31:54;100960.66;;;23.34
75431;BMP280;64127;51.488;5.462;2023-07-22T11:34:27;101030.69;;;23.84
75431;BMP280;64127;51.488;5.462;2023-07-22T11:37:00;101032.63;;;23.71
75431;BMP280;64127;51.488;5.462;2023-07-22T11:39:32;101032.63;;;23.70
75431;BMP280;64127;51.488;5.462;2023-07-22T11:42:06;101030.94;;;23.61
75431;BMP280;64127;51.488;5.462;2023-07-22T11:44:38;100940.25;;;23.20
75431;BMP280;64127;51.488;5.462;2023-07-22T11:47:13;100928.63;;;23.23
75431;BMP280;64127;51.488;5.462;2023-07-22T11:49:55;100964.00;;;23.57
75431;BMP280;64127;51.488;5.462;2023-07-22T11:52:27;100971.16;;;23.59
75431;BMP280;64127;51.488;5.462;2023-07-22T11:55:02;101001.41;;;23.69
75431;BMP280;64127;51.488;5.462;2023-07-22T11:57:54;100958.84;;;23.33
75431;BMP280;64127;51.488;5.462;2023-07-22T12:00:29;101048.59;;;23.82
75431;BMP280;64127;51.488;5.462;2023-07-22T12:03:06;101043.13;;;23.93
75431;BMP280;64127;51.488;5.462;2023-07-22T12:05:39;100967.41;;;23.76
75431;BMP280;64127;51.488;5.462;2023-07-22T12:08:15;100971.59;;;23.98
75431;BMP280;64127;51.488;5.462;2023-07-22T12:11:00;100956.31;;;24.07
75431;BMP280;64127;51.488;5.462;2023-07-22T12:13:37;100957.19;;;24.08
75431;BMP280;64127;51.488;5.462;2023-07-22T12:16:10;100966.19;;;24.04
75431;BMP280;64127;51.488;5.462;2023-07-22T12:18:46;100998.28;;;24.13
75431;BMP280;64127;51.488;5.462;2023-07-22T12:21:18;101004.56;;;24.06
75431;BMP280;64127;51.488;5.462;2023-07-22T12:23:53;100929.97;;;23.69
75431;BMP280;64127;51.488;5.462;2023-07-22T12:26:26;100923.78;;;23.64
75431;BMP280;64127;51.488;5.462;2023-07-22T12:29:01;100965.50;;;23.84
75431;BMP280;64127;51.488;5.462;2023-07-22T12:31:34;100975.38;;;23.82
75431;BMP280;64127;51.488;5.462;2023-07-22T12:34:06;100997.59;;;23.93
75431;BMP280;64127;51.488;5.462;2023-07-22T12:36:39;100920.34;;;23.50
75431;BMP280;64127;51.488;5.462;2023-07-22T12:39:12;101010.00;;;24.00
75431;BMP280;64127;51.488;5.462;2023-07-22T12:41:45;100934.53;;;23.61
75431;BMP280;64127;51.488;5.462;2023-07-22T12:44:17;100977.06;;;23.89
75431;BMP280;64127;51.488;5.462;2023-07-22T12:46:50;101001.75;;;24.18
75431;BMP280;64127;51.488;5.462;2023-07-22T12:49:22;100904.28;;;23.50
75431;BMP280;64127;51.488;5.462;2023-07-22T12:51:54;100900.75;;;23.48
75431;BMP280;64127;51.488;5.462;2023-07-22T12:54:27;100918.44;;;23.60
75431;BMP280;64127;51.488;5.462;2023-07-22T12:56:59;100892.75;;;23.44
75431;BMP280;64127;51.488;5.462;2023-07-22T12:59:33;100919.31;;;23.63
75431;BMP280;64127;51.488;5.462;2023-07-22T13:02:08;100902.53;;;23.49
75431;BMP280;64127;51.488;5.462;2023-07-22T13:04:54;100891.75;;;23.54
75431;BMP280;64127;51.488;5.462;2023-07-22T13:07:27;100915.69;;;23.67
75431;BMP280;64127;51.488;5.462;2023-07-22T13:10:02;100946.63;;;23.96
75431;BMP280;64127;51.488;5.462;2023-07-22T13:12:49;100926.97;;;23.97
75431;BMP280;64127;51.488;5.462;2023-07-22T13:15:24;100896.59;;;23.95
75431;BMP280;64127;51.488;5.462;2023-07-22T13:17:59;100893.69;;;24.17
75431;BMP280;64127;51.488;5.462;2023-07-22T13:21:00;100952.09;;;24.57
75431;BMP280;64127;51.488;5.462;2023-07-22T13:24:02;100864.25;;;24.08
75431;BMP280;64127;51.488;5.462;2023-07-22T13:26:37;100956.53;;;24.59
75431;BMP280;64127;51.488;5.462;2023-07-22T13:29:12;100891.00;;;24.17
75431;BMP280;64127;51.488;5.462;2023-07-22T13:31:50;100972.47;;;24.71
75431;BMP280;64127;51.488;5.462;2023-07-22T13:34:23;100880.84;;;24.39
75431;BMP280;64127;51.488;5.462;2023-07-22T13:37:03;100902.88;;;24.59
75431;BMP280;64127;51.488;5.462;2023-07-22T13:39:41;100928.47;;;24.83
75431;BMP280;64127;51.488;5.462;2023-07-22T13:42:16;100865.25;;;24.65
75431;BMP280;64127;51.488;5.462;2023-07-22T13:44:57;100956.28;;;25.33
75431;BMP280;64127;51.488;5.462;2023-07-22T13:47:29;100848.09;;;24.74
75431;BMP280;64127;51.488;5.462;2023-07-22T13:50:02;100946.63;;;25.21
75431;BMP280;64127;51.488;5.462;2023-07-22T13:52:59;100932.47;;;25.13
75431;BMP280;64127;51.488;5.462;2023-07-22T13:55:31;100948.38;;;25.23
75431;BMP280;64127;51.488;5.462;2023-07-22T13:58:12;100902.47;;;24.87
75431;BMP280;64127;51.488;5.462;2023-07-22T14:00:45;100891.91;;;24.74
75431;BMP280;64127;51.488;5.462;2023-07-22T14:03:20;100956.63;;;25.11
75431;BMP280;64127;51.488;5.462;2023-07-22T14:05:52;100931.59;;;25.11
75431;BMP280;64127;51.488;5.462;2023-07-22T14:08:26;100937.66;;;25.22
75431;BMP280;64127;51.488;5.462;2023-07-22T14:10:58;100951.91;;;25.27
75431;BMP280;64127;51.488;5.462;2023-07-22T14:13:38;100818.03;;;24.52
75431;BMP280;64127;51.488;5.462;2023-07-22T14:16:19;100832.22;;;24.62
75431;BMP280;64127;51.488;5.462;2023-07-22T14:18:54;100857.94;;;24.73
75431;BMP280;64127;51.488;5.462;2023-07-22T14:21:27;100837.59;;;24.60
75431;BMP280;64127;51.488;5.462;2023-07-22T14:24:00;100938.56;;;25.22
75431;BMP280;64127;51.488;5.462;2023-07-22T14:26:35;100931.53;;;25.14
75431;BMP280;64127;51.488;5.462;2023-07-22T14:29:07;100909.63;;;24.88
75431;BMP280;64127;51.488;5.462;2023-07-22T14:31:43;100898.28;;;24.66
75431;BMP280;64127;51.488;5.462;2023-07-22T14:34:21;100919.53;;;24.81
75431;BMP280;64127;51.488;5.462;2023-07-22T14:37:16;100817.63;;;24.23
75431;BMP280;64127;51.488;5.462;2023-07-22T14:39:54;100895.59;;;24.67